sensor_id;sensor_type;location;lat;lon;timestamp;temperature;humidity
5697;DHT22;2873;50.966;7.210;2023-08-08T00:00:51;16.70;99.90
5697;DHT22;2873;50.966;7.210;2023-08-08T00:03:16;16.50;99.90
5697;DHT22;2873;50.966;7.210;2023-08-08T00:05:42;16.50;99.90
5697;DHT22;2873;50.966;7.210;2023-08-08T00:08:07;16.50;99.90
5697;DHT22;2873;50.966;7.210;2023-08-08T00:10:33;16.50;99.90
5697;DHT22;2873;50.966;7.210;2023-08-08T00:12:59;16.50;99.90
5697;DHT22;2873;50.966;7.210;2023-08-08T00:15:24;16.40;99.90
5697;DHT22;2873;50.966;7.210;2023-08-08T00:17:50;16.30;99.90
5697;DHT22;2873;50.966;7.210;2023-08-08T00:20:15;16.30;99.90
5697;DHT22;2873;50.966;7.210;2023-08-08T00:22:41;16.20;99.90
5697;DHT22;2873;50.966;7.210;2023-08-08T00:25:07;16.20;99.90
5697;DHT22;2873;50.966;7.210;2023-08-08T00:27:33;16.20;99.90
5697;DHT22;2873;50.966;7.210;2023-08-08T00:29:59;16.20;99.90
5697;DHT22;2873;50.966;7.210;2023-08-08T00:32:24;16.20;99.90
5697;DHT22;2873;50.966;7.210;2023-08-08T00:34:50;16.10;99.90
5697;DHT22;2873;50.966;7.210;2023-08-08T00:37:15;16.10;99.90
5697;DHT22;2873;50.966;7.210;2023-08-08T00:39:41;16.10;99.90
5697;DHT22;2873;50.966;7.210;2023-08-08T00:42:14;16.00;99.90
5697;DHT22;2873;50.966;7.210;2023-08-08T00:44:40;16.00;99.90
5697;DHT22;2873;50.966;7.210;2023-08-08T00:47:08;16.00;99.90
5697;DHT22;2873;50.966;7.210;2023-08-08T00:49:34;16.00;99.90
5697;DHT22;2873;50.966;7.210;2023-08-08T00:51:59;16.00;99.90
5697;DHT22;2873;50.966;7.210;2023-08-08T00:54:25;16.00;99.90
5697;DHT22;2873;50.966;7.210;2023-08-08T00:56:51;16.00;99.90
5697;DHT22;2873;50.966;7.210;2023-08-08T00:59:18;16.00;99.90
5697;DHT22;2873;50.966;7.210;2023-08-08T01:01:44;15.90;99.90
5697;DHT22;2873;50.966;7.210;2023-08-08T01:04:09;15.90;99.90
5697;DHT22;2873;50.966;7.210;2023-08-08T01:07:01;15.90;99.90
5697;DHT22;2873;50.966;7.210;2023-08-08T01:09:40;15.90;99.90
5697;DHT22;2873;50.966;7.210;2023-08-08T01:12:08;15.90;99.90
5697;DHT22;2873;50.966;7.210;2023-08-08T01:14:37;15.80;99.90
5697;DHT22;2873;50.966;7.210;2023-08-08T01:17:04;15.80;99.90
5697;DHT22;2873;50.966;7.210;2023-08-08T01:19:31;15.80;99.90
5697;DHT22;2873;50.966;7.210;2023-08-08T01:22:04;15.80;99.90
5697;DHT22;2873;50.966;7.210;2023-08-08T01:24:30;15.80;99.90
5697;DHT22;2873;50.966;7.210;2023-08-08T01:26:59;15.90;99.90
5697;DHT22;2873;50.966;7.210;2023-08-08T01:29:24;15.90;99.90
5697;DHT22;2873;50.966;7.210;2023-08-08T01:31:50;15.80;99.90
5697;DHT22;2873;50.966;7.210;2023-08-08T01:34:15;15.80;99.90
5697;DHT22;2873;50.966;7.210;2023-08-08T01:37:11;15.80;99.90
5697;DHT22;2873;50.966;7.210;2023-08-08T01:39:40;15.90;99.90
5697;DHT22;2873;50.966;7.210;2023-08-08T01:42:07;15.90;99.90
5697;DHT22;2873;50.966;7.210;2023-08-08T01:44:34;15.90;99.90
5697;DHT22;2873;50.966;7.210;2023-08-08T01:47:00;15.90;99.90
5697;DHT22;2873;50.966;7.210;2023-08-08T01:49:26;16.00;99.90
5697;DHT22;2873;50.966;7.210;2023-08-08T01:51:52;15.90;99.90
5697;DHT22;2873;50.966;7.210;2023-08-08T01:54:18;16.00;99.90
5697;DHT22;2873;50.966;7.210;2023-08-08T01:56:44;15.90;99.90
5697;DHT22;2873;50.966;7.210;2023-08-08T01:59:09;15.90;99.90
5697;DHT22;2873;50.966;7.210;2023-08-08T02:01:35;15.90;99.90
5697;DHT22;2873;50.966;7.210;2023-08-08T02:04:00;15.90;99.90
5697;DHT22;2873;50.966;7.210;2023-08-08T02:06:26;16.00;99.90
5697;DHT22;2873;50.966;7.210;2023-08-08T02:08:51;15.90;99.90
5697;DHT22;2873;50.966;7.210;2023-08-08T02:11:17;16.00;99.90
5697;DHT22;2873;50.966;7.210;2023-08-08T02:13:42;15.90;99.90
5697;DHT22;2873;50.966;7.210;2023-08-08T02:16:08;15.90;99.90
5697;DHT22;2873;50.966;7.210;2023-08-08T02:18:33;15.90;99.90
5697;DHT22;2873;50.966;7.210;2023-08-08T02:20:59;15.90;99.90
5697;DHT22;2873;50.966;7.210;2023-08-08T02:23:25;15.90;99.90
5697;DHT22;2873;50.966;7.210;2023-08-08T02:25:51;15.80;99.90
5697;DHT22;2873;50.966;7.210;2023-08-08T02:28:17;15.90;99.90
5697;DHT22;2873;50.966;7.210;2023-08-08T02:30:42;15.90;99.90
5697;DHT22;2873;50.966;7.210;2023-08-08T02:33:08;15.80;99.90
5697;DHT22;2873;50.966;7.210;2023-08-08T02:35:33;15.70;99.90
5697;DHT22;2873;50.966;7.210;2023-08-08T02:37:59;15.70;99.90
5697;DHT22;2873;50.966;7.210;2023-08-08T02:40:25;15.70;99.90
5697;DHT22;2873;50.966;7.210;2023-08-08T02:42:52;15.60;99.90
5697;DHT22;2873;50.966;7.210;2023-08-08T02:45:19;15.70;99.90
5697;DHT22;2873;50.966;7.210;2023-08-08T02:47:45;15.60;99.90
5697;DHT22;2873;50.966;7.210;2023-08-08T02:50:10;15.50;99.90
5697;DHT22;2873;50.966;7.210;2023-08-08T02:52:36;15.40;99.90
5697;DHT22;2873;50.966;7.210;2023-08-08T02:55:01;15.40;99.90
5697;DHT22;2873;50.966;7.210;2023-08-08T02:57:27;15.30;99.90
5697;DHT22;2873;50.966;7.210;2023-08-08T02:59:53;15.20;99.90
5697;DHT22;2873;50.966;7.210;2023-08-08T03:02:19;15.20;99.90
5697;DHT22;2873;50.966;7.210;2023-08-08T03:04:44;15.20;99.90
5697;DHT22;2873;50.966;7.210;2023-08-08T03:07:10;15.10;99.90
5697;DHT22;2873;50.966;7.210;2023-08-08T03:09:36;15.10;99.90
5697;DHT22;2873;50.966;7.210;2023-08-08T03:12:01;15.10;99.90
5697;DHT22;2873;50.966;7.210;2023-08-08T03:14:27;15.20;99.90
5697;DHT22;2873;50.966;7.210;2023-08-08T03:16:52;15.10;99.90
5697;DHT22;2873;50.966;7.210;2023-08-08T03:19:18;15.10;99.90
5697;DHT22;2873;50.966;7.210;2023-08-08T03:21:44;15.10;99.90
5697;DHT22;2873;50.966;7.210;2023-08-08T03:24:09;15.10;99.90
5697;DHT22;2873;50.966;7.210;2023-08-08T03:26:35;15.00;99.90
5697;DHT22;2873;50.966;7.210;2023-08-08T03:29:00;15.10;99.90
5697;DHT22;2873;50.966;7.210;2023-08-08T03:31:26;15.00;99.90
5697;DHT22;2873;50.966;7.210;2023-08-08T03:33:52;15.00;99.90
5697;DHT22;2873;50.966;7.210;2023-08-08T03:36:18;14.90;99.90
5697;DHT22;2873;50.966;7.210;2023-08-08T03:38:43;15.00;99.90
5697;DHT22;2873;50.966;7.210;2023-08-08T03:41:11;15.00;99.90
5697;DHT22;2873;50.966;7.210;2023-08-08T03:43:38;15.00;99.90
5697;DHT22;2873;50.966;7.210;2023-08-08T03:46:04;15.00;99.90
5697;DHT22;2873;50.966;7.210;2023-08-08T03:48:29;15.10;99.90
5697;DHT22;2873;50.966;7.210;2023-08-08T03:50:55;15.00;99.90
5697;DHT22;2873;50.966;7.210;2023-08-08T03:53:20;15.00;99.90
5697;DHT22;2873;50.966;7.210;2023-08-08T03:55:46;15.00;99.90
5697;DHT22;2873;50.966;7.210;2023-08-08T03:58:11;14.90;99.90
5697;DHT22;2873;50.966;7.210;2023-08-08T04:00:37;14.90;99.90
5697;DHT22;2873;50.966;7.210;2023-08-08T04:03:05;14.90;99.90
5697;DHT22;2873;50.966;7.210;2023-08-08T04:05:31;14.80;99.90
5697;DHT22;2873;50.966;7.210;2023-08-08T04:07:56;14.80;99.90
5697;DHT22;2873;50.966;7.210;2023-08-08T04:10:22;14.80;99.90
5697;DHT22;2873;50.966;7.210;2023-08-08T04:12:47;14.80;99.90
5697;DHT22;2873;50.966;7.210;2023-08-08T04:15:13;14.80;99.90
5697;DHT22;2873;50.966;7.210;2023-08-08T04:17:39;14.80;99.90
5697;DHT22;2873;50.966;7.210;2023-08-08T04:20:05;14.80;99.90
5697;DHT22;2873;50.966;7.210;2023-08-08T04:22:32;14.80;99.90
5697;DHT22;2873;50.966;7.210;2023-08-08T04:24:58;14.80;99.90
5697;DHT22;2873;50.966;7.210;2023-08-08T04:27:23;14.90;99.90
5697;DHT22;2873;50.966;7.210;2023-08-08T04:29:49;14.80;99.90
5697;DHT22;2873;50.966;7.210;2023-08-08T04:32:14;14.90;99.90
5697;DHT22;2873;50.966;7.210;2023-08-08T04:34:40;15.00;99.90
5697;DHT22;2873;50.966;7.210;2023-08-08T04:37:05;14.90;99.90
5697;DHT22;2873;50.966;7.210;2023-08-08T04:39:31;14.90;99.90
5697;DHT22;2873;50.966;7.210;2023-08-08T04:41:56;15.00;99.90
5697;DHT22;2873;50.966;7.210;2023-08-08T04:44:22;15.00;99.90
5697;DHT22;2873;50.966;7.210;2023-08-08T04:46:47;15.00;99.90
5697;DHT22;2873;50.966;7.210;2023-08-08T04:49:13;15.00;99.90
5697;DHT22;2873;50.966;7.210;2023-08-08T04:51:38;14.90;99.90
5697;DHT22;2873;50.966;7.210;2023-08-08T04:54:04;14.90;99.90
5697;DHT22;2873;50.966;7.210;2023-08-08T04:56:29;14.90;99.90
5697;DHT22;2873;50.966;7.210;2023-08-08T04:58:55;15.00;99.90
5697;DHT22;2873;50.966;7.210;2023-08-08T05:01:21;15.00;99.90
5697;DHT22;2873;50.966;7.210;2023-08-08T05:03:47;15.10;99.90
5697;DHT22;2873;50.966;7.210;2023-08-08T05:06:13;15.10;99.90
5697;DHT22;2873;50.966;7.210;2023-08-08T05:08:39;15.10;99.90
5697;DHT22;2873;50.966;7.210;2023-08-08T05:11:04;15.20;99.90
5697;DHT22;2873;50.966;7.210;2023-08-08T05:13:30;15.20;99.90
5697;DHT22;2873;50.966;7.210;2023-08-08T05:15:55;15.10;99.90
5697;DHT22;2873;50.966;7.210;2023-08-08T05:18:21;15.10;99.90
5697;DHT22;2873;50.966;7.210;2023-08-08T05:20:47;15.20;99.90
5697;DHT22;2873;50.966;7.210;2023-08-08T05:23:12;15.10;99.90
5697;DHT22;2873;50.966;7.210;2023-08-08T05:25:38;15.10;99.90
5697;DHT22;2873;50.966;7.210;2023-08-08T05:28:03;15.10;99.90
5697;DHT22;2873;50.966;7.210;2023-08-08T05:30:29;15.00;99.90
5697;DHT22;2873;50.966;7.210;2023-08-08T05:32:55;15.00;99.90
5697;DHT22;2873;50.966;7.210;2023-08-08T05:35:20;15.10;99.90
5697;DHT22;2873;50.966;7.210;2023-08-08T05:37:46;15.00;99.90
5697;DHT22;2873;50.966;7.210;2023-08-08T05:40:11;15.10;99.90
5697;DHT22;2873;50.966;7.210;2023-08-08T05:42:38;15.10;99.90
5697;DHT22;2873;50.966;7.210;2023-08-08T05:45:04;15.10;99.90
5697;DHT22;2873;50.966;7.210;2023-08-08T05:47:30;15.10;99.90
5697;DHT22;2873;50.966;7.210;2023-08-08T05:49:55;15.10;99.90
5697;DHT22;2873;50.966;7.210;2023-08-08T05:52:21;15.10;99.90
5697;DHT22;2873;50.966;7.210;2023-08-08T05:54:47;15.20;99.90
5697;DHT22;2873;50.966;7.210;2023-08-08T05:57:12;15.20;99.90
5697;DHT22;2873;50.966;7.210;2023-08-08T05:59:40;15.20;99.90
5697;DHT22;2873;50.966;7.210;2023-08-08T06:02:06;15.30;99.90
5697;DHT22;2873;50.966;7.210;2023-08-08T06:04:32;15.20;99.90
5697;DHT22;2873;50.966;7.210;2023-08-08T06:06:57;15.30;99.90
5697;DHT22;2873;50.966;7.210;2023-08-08T06:09:24;15.30;99.90
5697;DHT22;2873;50.966;7.210;2023-08-08T06:11:50;15.30;99.90
5697;DHT22;2873;50.966;7.210;2023-08-08T06:14:15;15.60;99.90
5697;DHT22;2873;50.966;7.210;2023-08-08T06:16:42;15.30;99.90
5697;DHT22;2873;50.966;7.210;2023-08-08T06:19:08;15.40;99.90
5697;DHT22;2873;50.966;7.210;2023-08-08T06:21:34;15.40;99.90
5697;DHT22;2873;50.966;7.210;2023-08-08T06:23:59;15.60;99.90
5697;DHT22;2873;50.966;7.210;2023-08-08T06:26:25;15.50;99.90
5697;DHT22;2873;50.966;7.210;2023-08-08T06:28:51;15.50;99.90
5697;DHT22;2873;50.966;7.210;2023-08-08T06:31:19;15.40;99.90
5697;DHT22;2873;50.966;7.210;2023-08-08T06:33:45;15.50;99.90
5697;DHT22;2873;50.966;7.210;2023-08-08T06:36:10;15.50;99.90
5697;DHT22;2873;50.966;7.210;2023-08-08T06:38:36;15.60;99.90
5697;DHT22;2873;50.966;7.210;2023-08-08T06:41:02;15.60;99.90
5697;DHT22;2873;50.966;7.210;2023-08-08T06:43:29;15.70;99.90
5697;DHT22;2873;50.966;7.210;2023-08-08T06:45:55;15.70;99.90
5697;DHT22;2873;50.966;7.210;2023-08-08T06:48:21;15.80;99.90
5697;DHT22;2873;50.966;7.210;2023-08-08T06:50:47;15.80;99.90
5697;DHT22;2873;50.966;7.210;2023-08-08T06:53:12;15.90;99.90
5697;DHT22;2873;50.966;7.210;2023-08-08T06:55:38;16.00;99.90
5697;DHT22;2873;50.966;7.210;2023-08-08T06:58:03;16.00;99.90
5697;DHT22;2873;50.966;7.210;2023-08-08T07:00:29;16.10;99.90
5697;DHT22;2873;50.966;7.210;2023-08-08T07:02:55;16.00;99.90
5697;DHT22;2873;50.966;7.210;2023-08-08T07:05:21;16.20;99.90
5697;DHT22;2873;50.966;7.210;2023-08-08T07:07:49;16.20;99.90
5697;DHT22;2873;50.966;7.210;2023-08-08T07:10:15;16.20;99.90
5697;DHT22;2873;50.966;7.210;2023-08-08T07:12:41;16.40;99.90
5697;DHT22;2873;50.966;7.210;2023-08-08T07:15:07;16.30;99.90
5697;DHT22;2873;50.966;7.210;2023-08-08T07:17:33;16.30;99.90
5697;DHT22;2873;50.966;7.210;2023-08-08T07:19:59;16.40;99.90
5697;DHT22;2873;50.966;7.210;2023-08-08T07:22:25;16.40;99.90
5697;DHT22;2873;50.966;7.210;2023-08-08T07:24:51;16.40;99.90
5697;DHT22;2873;50.966;7.210;2023-08-08T07:27:16;16.40;99.90
5697;DHT22;2873;50.966;7.210;2023-08-08T07:29:42;16.50;99.90
5697;DHT22;2873;50.966;7.210;2023-08-08T07:32:08;16.80;99.90
5697;DHT22;2873;50.966;7.210;2023-08-08T07:34:33;16.60;99.90
5697;DHT22;2873;50.966;7.210;2023-08-08T07:36:59;16.60;99.90
5697;DHT22;2873;50.966;7.210;2023-08-08T07:39:25;16.60;99.90
5697;DHT22;2873;50.966;7.210;2023-08-08T07:41:51;16.70;99.90
5697;DHT22;2873;50.966;7.210;2023-08-08T07:44:17;16.80;99.90
5697;DHT22;2873;50.966;7.210;2023-08-08T07:46:42;16.80;99.90
5697;DHT22;2873;50.966;7.210;2023-08-08T07:49:08;16.90;99.90
5697;DHT22;2873;50.966;7.210;2023-08-08T07:51:35;17.00;99.90
5697;DHT22;2873;50.966;7.210;2023-08-08T07:54:00;17.00;99.90
5697;DHT22;2873;50.966;7.210;2023-08-08T07:56:26;17.10;99.90
5697;DHT22;2873;50.966;7.210;2023-08-08T07:58:52;17.20;99.90
5697;DHT22;2873;50.966;7.210;2023-08-08T08:01:18;17.10;99.90
5697;DHT22;2873;50.966;7.210;2023-08-08T08:03:44;17.10;99.90
5697;DHT22;2873;50.966;7.210;2023-08-08T08:06:09;17.10;99.90
5697;DHT22;2873;50.966;7.210;2023-08-08T08:08:35;17.00;99.90
5697;DHT22;2873;50.966;7.210;2023-08-08T08:11:02;17.20;99.90
5697;DHT22;2873;50.966;7.210;2023-08-08T08:13:27;17.20;99.90
5697;DHT22;2873;50.966;7.210;2023-08-08T08:15:53;17.40;99.90
5697;DHT22;2873;50.966;7.210;2023-08-08T08:18:19;17.30;99.90
5697;DHT22;2873;50.966;7.210;2023-08-08T08:20:45;17.30;99.90
5697;DHT22;2873;50.966;7.210;2023-08-08T08:23:11;17.30;99.90
5697;DHT22;2873;50.966;7.210;2023-08-08T08:25:37;17.50;99.90
5697;DHT22;2873;50.966;7.210;2023-08-08T08:28:03;17.30;99.90
5697;DHT22;2873;50.966;7.210;2023-08-08T08:30:28;17.40;99.90
5697;DHT22;2873;50.966;7.210;2023-08-08T08:32:54;17.50;99.90
5697;DHT22;2873;50.966;7.210;2023-08-08T08:35:19;17.60;99.90
5697;DHT22;2873;50.966;7.210;2023-08-08T08:37:46;17.60;99.90
5697;DHT22;2873;50.966;7.210;2023-08-08T08:40:11;17.70;99.90
5697;DHT22;2873;50.966;7.210;2023-08-08T08:42:39;17.60;99.90
5697;DHT22;2873;50.966;7.210;2023-08-08T08:45:06;17.70;99.90
5697;DHT22;2873;50.966;7.210;2023-08-08T08:47:36;17.70;99.90
5697;DHT22;2873;50.966;7.210;2023-08-08T08:50:03;17.70;99.90
5697;DHT22;2873;50.966;7.210;2023-08-08T08:52:30;17.70;99.90
5697;DHT22;2873;50.966;7.210;2023-08-08T08:54:55;17.70;99.90
5697;DHT22;2873;50.966;7.210;2023-08-08T08:57:22;17.80;99.90
5697;DHT22;2873;50.966;7.210;2023-08-08T08:59:49;17.70;99.90
5697;DHT22;2873;50.966;7.210;2023-08-08T09:02:15;17.60;99.90
5697;DHT22;2873;50.966;7.210;2023-08-08T09:04:40;17.50;99.90
5697;DHT22;2873;50.966;7.210;2023-08-08T09:07:07;17.50;99.90
5697;DHT22;2873;50.966;7.210;2023-08-08T09:09:33;17.50;99.90
5697;DHT22;2873;50.966;7.210;2023-08-08T09:11:59;17.60;99.90
5697;DHT22;2873;50.966;7.210;2023-08-08T09:14:26;17.60;99.90
5697;DHT22;2873;50.966;7.210;2023-08-08T09:16:53;17.60;99.90
5697;DHT22;2873;50.966;7.210;2023-08-08T09:19:19;17.60;99.90
5697;DHT22;2873;50.966;7.210;2023-08-08T09:21:46;17.50;99.90
5697;DHT22;2873;50.966;7.210;2023-08-08T09:24:12;17.60;99.90
5697;DHT22;2873;50.966;7.210;2023-08-08T09:26:39;17.60;99.90
5697;DHT22;2873;50.966;7.210;2023-08-08T09:29:05;17.70;99.90
5697;DHT22;2873;50.966;7.210;2023-08-08T09:31:31;17.60;99.90
5697;DHT22;2873;50.966;7.210;2023-08-08T09:33:58;17.60;99.90
5697;DHT22;2873;50.966;7.210;2023-08-08T09:36:24;17.60;99.90
5697;DHT22;2873;50.966;7.210;2023-08-08T09:38:51;17.70;99.90
5697;DHT22;2873;50.966;7.210;2023-08-08T09:41:17;17.90;99.90
5697;DHT22;2873;50.966;7.210;2023-08-08T09:43:45;17.80;99.90
5697;DHT22;2873;50.966;7.210;2023-08-08T09:46:12;17.80;99.90
5697;DHT22;2873;50.966;7.210;2023-08-08T09:48:39;18.00;99.90
5697;DHT22;2873;50.966;7.210;2023-08-08T09:51:06;17.80;99.90
5697;DHT22;2873;50.966;7.210;2023-08-08T09:53:32;17.90;99.90
5697;DHT22;2873;50.966;7.210;2023-08-08T09:56:01;17.80;99.90
5697;DHT22;2873;50.966;7.210;2023-08-08T09:58:28;17.90;99.90
5697;DHT22;2873;50.966;7.210;2023-08-08T10:00:53;17.90;99.90
5697;DHT22;2873;50.966;7.210;2023-08-08T10:03:19;18.10;99.90
5697;DHT22;2873;50.966;7.210;2023-08-08T10:05:46;17.90;99.90
5697;DHT22;2873;50.966;7.210;2023-08-08T10:08:14;18.10;99.90
5697;DHT22;2873;50.966;7.210;2023-08-08T10:10:41;18.00;99.90
5697;DHT22;2873;50.966;7.210;2023-08-08T10:13:08;18.00;99.90
5697;DHT22;2873;50.966;7.210;2023-08-08T10:15:37;18.10;99.90
5697;DHT22;2873;50.966;7.210;2023-08-08T10:18:03;18.10;99.90
5697;DHT22;2873;50.966;7.210;2023-08-08T10:20:31;18.10;99.90
5697;DHT22;2873;50.966;7.210;2023-08-08T10:23:01;18.20;99.90
5697;DHT22;2873;50.966;7.210;2023-08-08T10:25:29;18.20;99.90
5697;DHT22;2873;50.966;7.210;2023-08-08T10:28:08;18.30;99.90
5697;DHT22;2873;50.966;7.210;2023-08-08T10:30:53;18.30;99.90
5697;DHT22;2873;50.966;7.210;2023-08-08T10:33:26;18.30;99.90
5697;DHT22;2873;50.966;7.210;2023-08-08T10:35:59;18.20;99.90
5697;DHT22;2873;50.966;7.210;2023-08-08T10:38:26;18.20;99.90
5697;DHT22;2873;50.966;7.210;2023-08-08T10:40:59;18.20;99.90
5697;DHT22;2873;50.966;7.210;2023-08-08T10:43:26;18.40;99.90
5697;DHT22;2873;50.966;7.210;2023-08-08T10:45:52;18.60;99.90
5697;DHT22;2873;50.966;7.210;2023-08-08T10:48:18;18.80;99.90
5697;DHT22;2873;50.966;7.210;2023-08-08T10:50:46;19.00;99.90
5697;DHT22;2873;50.966;7.210;2023-08-08T10:53:12;19.00;99.90
5697;DHT22;2873;50.966;7.210;2023-08-08T10:55:38;19.10;99.90
5697;DHT22;2873;50.966;7.210;2023-08-08T11:00:35;19.20;99.90
5697;DHT22;2873;50.966;7.210;2023-08-08T11:03:02;19.20;99.90
5697;DHT22;2873;50.966;7.210;2023-08-08T11:05:31;19.20;99.90
5697;DHT22;2873;50.966;7.210;2023-08-08T11:08:01;19.20;99.90
5697;DHT22;2873;50.966;7.210;2023-08-08T11:10:27;19.20;99.90
5697;DHT22;2873;50.966;7.210;2023-08-08T11:15:24;19.10;99.90
5697;DHT22;2873;50.966;7.210;2023-08-08T11:17:52;19.00;99.90
5697;DHT22;2873;50.966;7.210;2023-08-08T11:20:18;19.10;99.90
5697;DHT22;2873;50.966;7.210;2023-08-08T11:22:44;19.00;99.90
5697;DHT22;2873;50.966;7.210;2023-08-08T11:25:09;19.10;99.90
5697;DHT22;2873;50.966;7.210;2023-08-08T11:27:35;19.00;99.90
5697;DHT22;2873;50.966;7.210;2023-08-08T11:30:00;19.10;99.90
5697;DHT22;2873;50.966;7.210;2023-08-08T11:32:27;19.20;99.90
5697;DHT22;2873;50.966;7.210;2023-08-08T11:34:56;19.20;99.90
5697;DHT22;2873;50.966;7.210;2023-08-08T11:37:22;19.20;99.90
5697;DHT22;2873;50.966;7.210;2023-08-08T11:39:49;19.20;99.90
5697;DHT22;2873;50.966;7.210;2023-08-08T11:42:14;19.20;99.90
5697;DHT22;2873;50.966;7.210;2023-08-08T11:44:40;19.20;99.90
5697;DHT22;2873;50.966;7.210;2023-08-08T11:47:07;19.20;99.90
5697;DHT22;2873;50.966;7.210;2023-08-08T11:49:40;19.20;99.90
5697;DHT22;2873;50.966;7.210;2023-08-08T11:52:07;19.30;99.90
5697;DHT22;2873;50.966;7.210;2023-08-08T11:54:33;19.20;99.90
5697;DHT22;2873;50.966;7.210;2023-08-08T11:57:01;19.20;99.90
5697;DHT22;2873;50.966;7.210;2023-08-08T11:59:27;19.20;99.90
5697;DHT22;2873;50.966;7.210;2023-08-08T12:01:53;19.30;99.90
5697;DHT22;2873;50.966;7.210;2023-08-08T12:04:20;19.30;99.90
5697;DHT22;2873;50.966;7.210;2023-08-08T12:06:46;19.40;99.90
5697;DHT22;2873;50.966;7.210;2023-08-08T12:09:12;19.30;99.90
5697;DHT22;2873;50.966;7.210;2023-08-08T12:11:41;19.30;99.90
5697;DHT22;2873;50.966;7.210;2023-08-08T12:14:09;19.30;99.90
5697;DHT22;2873;50.966;7.210;2023-08-08T12:16:38;19.30;99.90
5697;DHT22;2873;50.966;7.210;2023-08-08T12:19:07;19.20;99.90
5697;DHT22;2873;50.966;7.210;2023-08-08T12:21:34;19.30;99.90
5697;DHT22;2873;50.966;7.210;2023-08-08T12:24:00;19.20;99.90
5697;DHT22;2873;50.966;7.210;2023-08-08T12:26:25;19.10;99.90
5697;DHT22;2873;50.966;7.210;2023-08-08T12:28:51;19.00;99.90
5697;DHT22;2873;50.966;7.210;2023-08-08T12:31:19;19.10;99.90
5697;DHT22;2873;50.966;7.210;2023-08-08T12:33:45;19.10;99.90
5697;DHT22;2873;50.966;7.210;2023-08-08T12:36:11;19.10;99.90
5697;DHT22;2873;50.966;7.210;2023-08-08T12:38:36;19.20;99.90
5697;DHT22;2873;50.966;7.210;2023-08-08T12:41:02;19.20;99.90
5697;DHT22;2873;50.966;7.210;2023-08-08T12:43:28;19.20;99.90
5697;DHT22;2873;50.966;7.210;2023-08-08T12:45:53;19.20;99.90
5697;DHT22;2873;50.966;7.210;2023-08-08T12:48:19;19.10;99.90
5697;DHT22;2873;50.966;7.210;2023-08-08T12:50:44;19.10;99.90
5697;DHT22;2873;50.966;7.210;2023-08-08T12:53:10;19.10;99.90
5697;DHT22;2873;50.966;7.210;2023-08-08T12:55:36;19.20;99.90
5697;DHT22;2873;50.966;7.210;2023-08-08T12:58:03;19.20;99.90
5697;DHT22;2873;50.966;7.210;2023-08-08T13:00:29;19.10;99.90
5697;DHT22;2873;50.966;7.210;2023-08-08T13:02:54;19.30;99.90
5697;DHT22;2873;50.966;7.210;2023-08-08T13:05:20;19.10;99.90
5697;DHT22;2873;50.966;7.210;2023-08-08T13:07:46;19.10;99.90
5697;DHT22;2873;50.966;7.210;2023-08-08T13:10:11;19.10;99.90
5697;DHT22;2873;50.966;7.210;2023-08-08T13:12:37;19.10;99.90
5697;DHT22;2873;50.966;7.210;2023-08-08T13:15:04;19.00;99.90
5697;DHT22;2873;50.966;7.210;2023-08-08T13:17:29;19.00;99.90
5697;DHT22;2873;50.966;7.210;2023-08-08T13:19:55;19.00;99.90
5697;DHT22;2873;50.966;7.210;2023-08-08T13:22:20;18.90;99.90
5697;DHT22;2873;50.966;7.210;2023-08-08T13:24:46;18.90;99.90
5697;DHT22;2873;50.966;7.210;2023-08-08T13:27:11;19.00;99.90
5697;DHT22;2873;50.966;7.210;2023-08-08T13:29:37;19.00;99.90
5697;DHT22;2873;50.966;7.210;2023-08-08T13:32:03;19.00;99.90
5697;DHT22;2873;50.966;7.210;2023-08-08T13:34:29;19.00;99.90
5697;DHT22;2873;50.966;7.210;2023-08-08T13:36:54;19.00;99.90
5697;DHT22;2873;50.966;7.210;2023-08-08T13:39:20;19.00;99.90
5697;DHT22;2873;50.966;7.210;2023-08-08T13:41:45;19.20;99.90
5697;DHT22;2873;50.966;7.210;2023-08-08T13:44:11;19.00;99.90
5697;DHT22;2873;50.966;7.210;2023-08-08T13:46:36;19.20;99.90
5697;DHT22;2873;50.966;7.210;2023-08-08T13:49:02;19.70;99.90
5697;DHT22;2873;50.966;7.210;2023-08-08T13:51:27;20.50;99.90
5697;DHT22;2873;50.966;7.210;2023-08-08T13:53:53;20.90;99.90
5697;DHT22;2873;50.966;7.210;2023-08-08T13:56:19;21.00;99.90
5697;DHT22;2873;50.966;7.210;2023-08-08T13:58:46;21.20;99.90
5697;DHT22;2873;50.966;7.210;2023-08-08T14:01:11;21.10;99.90
5697;DHT22;2873;50.966;7.210;2023-08-08T14:03:37;21.10;99.90
5697;DHT22;2873;50.966;7.210;2023-08-08T14:06:02;21.10;99.90
5697;DHT22;2873;50.966;7.210;2023-08-08T14:08:28;21.00;99.90
5697;DHT22;2873;50.966;7.210;2023-08-08T14:10:53;20.90;99.90
5697;DHT22;2873;50.966;7.210;2023-08-08T14:13:19;20.90;99.90
5697;DHT22;2873;50.966;7.210;2023-08-08T14:15:45;20.80;99.90
5697;DHT22;2873;50.966;7.210;2023-08-08T14:18:11;20.60;99.90
5697;DHT22;2873;50.966;7.210;2023-08-08T14:20:37;20.50;99.90
5697;DHT22;2873;50.966;7.210;2023-08-08T14:23:03;20.30;99.90
5697;DHT22;2873;50.966;7.210;2023-08-08T14:25:29;20.20;99.90
5697;DHT22;2873;50.966;7.210;2023-08-08T14:27:55;20.20;99.90
5697;DHT22;2873;50.966;7.210;2023-08-08T14:30:22;19.90;99.90
5697;DHT22;2873;50.966;7.210;2023-08-08T14:32:47;19.90;99.90
5697;DHT22;2873;50.966;7.210;2023-08-08T14:35:13;19.90;99.90
5697;DHT22;2873;50.966;7.210;2023-08-08T14:37:39;19.90;99.90
5697;DHT22;2873;50.966;7.210;2023-08-08T14:40:05;19.80;99.90
5697;DHT22;2873;50.966;7.210;2023-08-08T14:42:31;20.00;99.90
5697;DHT22;2873;50.966;7.210;2023-08-08T14:44:57;20.20;99.90
5697;DHT22;2873;50.966;7.210;2023-08-08T14:47:22;20.50;99.90
5697;DHT22;2873;50.966;7.210;2023-08-08T14:49:48;20.70;99.90
5697;DHT22;2873;50.966;7.210;2023-08-08T14:52:16;20.80;99.90
5697;DHT22;2873;50.966;7.210;2023-08-08T14:54:41;21.10;99.90
5697;DHT22;2873;50.966;7.210;2023-08-08T14:57:07;21.00;99.90
5697;DHT22;2873;50.966;7.210;2023-08-08T14:59:33;21.00;99.90
5697;DHT22;2873;50.966;7.210;2023-08-08T15:01:59;21.00;99.90
5697;DHT22;2873;50.966;7.210;2023-08-08T15:04:24;21.00;99.90
5697;DHT22;2873;50.966;7.210;2023-08-08T15:06:50;21.00;99.90
5697;DHT22;2873;50.966;7.210;2023-08-08T15:09:15;21.10;99.90
5697;DHT22;2873;50.966;7.210;2023-08-08T15:11:41;21.20;99.90
5697;DHT22;2873;50.966;7.210;2023-08-08T15:14:07;21.20;99.90
5697;DHT22;2873;50.966;7.210;2023-08-08T15:16:32;21.30;99.90
5697;DHT22;2873;50.966;7.210;2023-08-08T15:18:58;21.30;99.90
5697;DHT22;2873;50.966;7.210;2023-08-08T15:21:24;21.40;99.90
5697;DHT22;2873;50.966;7.210;2023-08-08T15:23:49;21.20;99.90
5697;DHT22;2873;50.966;7.210;2023-08-08T15:26:15;21.20;99.90
5697;DHT22;2873;50.966;7.210;2023-08-08T15:28:48;21.00;99.90
5697;DHT22;2873;50.966;7.210;2023-08-08T15:31:14;21.00;99.90
5697;DHT22;2873;50.966;7.210;2023-08-08T15:33:39;21.00;99.90
5697;DHT22;2873;50.966;7.210;2023-08-08T15:36:05;21.10;99.90
5697;DHT22;2873;50.966;7.210;2023-08-08T15:38:31;21.10;99.90
5697;DHT22;2873;50.966;7.210;2023-08-08T15:40:57;21.10;99.90
5697;DHT22;2873;50.966;7.210;2023-08-08T15:43:23;21.20;99.90
5697;DHT22;2873;50.966;7.210;2023-08-08T15:45:50;21.10;99.90
5697;DHT22;2873;50.966;7.210;2023-08-08T15:48:16;21.10;99.90
5697;DHT22;2873;50.966;7.210;2023-08-08T15:50:42;21.10;99.90
5697;DHT22;2873;50.966;7.210;2023-08-08T15:53:08;20.90;99.90
5697;DHT22;2873;50.966;7.210;2023-08-08T15:55:35;20.80;99.90
5697;DHT22;2873;50.966;7.210;2023-08-08T15:58:02;20.80;99.90
5697;DHT22;2873;50.966;7.210;2023-08-08T16:00:27;20.80;99.90